createdAt,value
2023-03-29T00:04:16.053Z,2.31
2023-03-29T00:09:20.174Z,2.26
2023-03-29T00:14:23.504Z,2.21
2023-03-29T00:19:27.154Z,2.17
2023-03-29T00:24:30.984Z,2.10
2023-03-29T00:29:34.507Z,1.96
2023-03-29T00:34:37.921Z,1.89
2023-03-29T00:39:42.337Z,1.86
2023-03-29T00:45:04.173Z,1.88
2023-03-29T00:50:14.610Z,1.94
2023-03-29T00:55:23.062Z,1.87
2023-03-29T01:00:35.653Z,1.74
2023-03-29T01:05:43.335Z,1.69
2023-03-29T01:10:55.414Z,1.69
2023-03-29T01:16:00.229Z,1.70
2023-03-29T01:21:25.519Z,1.67
2023-03-29T01:26:35.114Z,1.64
2023-03-29T01:31:42.246Z,1.58
2023-03-29T01:37:02.396Z,1.49
2023-03-29T01:42:21.232Z,1.41
2023-03-29T01:47:32.729Z,1.31
2023-03-29T01:52:43.441Z,1.26
2023-03-29T01:57:49.014Z,1.20
2023-03-29T02:03:00.557Z,1.13
2023-03-29T02:08:06.208Z,1.12
2023-03-29T02:13:09.444Z,1.14
2023-03-29T02:18:16.726Z,1.19
2023-03-29T02:23:41.265Z,1.26
2023-03-29T02:28:44.836Z,1.30
2023-03-29T02:34:00.886Z,1.30
2023-03-29T02:39:06.129Z,1.29
2023-03-29T02:44:14.242Z,1.18
2023-03-29T02:49:18.287Z,1.03
2023-03-29T02:54:30.023Z,0.93
2023-03-29T02:59:34.825Z,0.83
2023-03-29T03:04:38.461Z,0.84
2023-03-29T03:09:42.084Z,0.80
2023-03-29T03:14:46.068Z,0.76
2023-03-29T03:19:49.774Z,0.71
2023-03-29T03:24:53.852Z,0.65
2023-03-29T03:29:58.321Z,0.57
2023-03-29T03:35:22.936Z,0.50
2023-03-29T03:40:27.865Z,0.47
2023-03-29T03:45:31.868Z,0.48
2023-03-29T03:50:59.305Z,0.49
2023-03-29T03:56:09.287Z,0.48
2023-03-29T04:01:24.776Z,0.53
2023-03-29T04:06:35.437Z,0.61
2023-03-29T04:12:02.051Z,0.56
2023-03-29T04:17:06.220Z,0.50
2023-03-29T04:22:25.965Z,0.41
2023-03-29T04:27:30.154Z,0.36
2023-03-29T04:32:34.395Z,0.37
2023-03-29T04:37:42.489Z,0.37
2023-03-29T04:42:47.593Z,0.38
2023-03-29T04:47:51.123Z,0.42
2023-03-29T04:52:55.869Z,0.37
2023-03-29T05:04:59.544Z,0.39
2023-03-29T05:10:04.730Z,0.38
2023-03-29T05:15:09.774Z,0.28
2023-03-29T05:20:14.017Z,0.27
2023-03-29T05:25:19.794Z,0.28
2023-03-29T05:30:23.866Z,0.28
2023-03-29T05:35:36.141Z,0.25
2023-03-29T05:48:27.418Z,0.40
2023-03-29T05:53:41.447Z,0.51
2023-03-29T06:04:15.768Z,0.75
2023-03-29T06:09:41.508Z,0.88
2023-03-29T06:20:15.917Z,1.14
2023-03-29T06:25:46.843Z,1.33
2023-03-29T06:30:56.790Z,1.54
2023-03-29T06:36:03.850Z,1.73
2023-03-29T06:46:47.610Z,1.86
2023-03-29T06:51:51.481Z,1.89
2023-03-29T06:56:55.240Z,1.95
2023-03-29T07:01:59.843Z,1.98
2023-03-29T07:07:27.595Z,2.11
2023-03-29T07:12:43.533Z,2.21
2023-03-29T07:17:51.517Z,2.30
2023-03-29T07:22:57.515Z,2.52
2023-03-29T07:28:16.572Z,2.66
2023-03-29T07:50:16.357Z,3.13
2023-03-29T07:57:04.297Z,3.32
2023-03-29T08:03:19.582Z,3.48
2023-03-29T08:53:41.601Z,4.73
2023-03-29T08:58:59.835Z,4.88
2023-03-29T09:43:36.637Z,6.00
2023-03-29T09:49:16.076Z,6.13
2023-03-29T09:55:23.876Z,6.17
2023-03-29T10:01:09.904Z,6.40
2023-03-29T10:06:58.244Z,6.57
2023-03-29T10:31:14.539Z,7.36
2023-03-29T10:42:58.726Z,8.01
2023-03-29T10:48:30.829Z,8.25
2023-03-29T10:54:09.110Z,8.39
2023-03-29T11:00:10.542Z,8.41
2023-03-29T11:05:34.870Z,8.35
2023-03-29T11:11:11.714Z,8.56
2023-03-29T11:22:56.271Z,8.81
2023-03-29T11:29:35.245Z,8.91
2023-03-29T11:35:45.002Z,9.28
2023-03-29T11:47:11.012Z,9.89
2023-03-29T11:52:22.756Z,9.96
2023-03-29T11:57:31.158Z,10.17
2023-03-29T12:02:48.022Z,10.48
2023-03-29T12:08:06.663Z,10.92
2023-03-29T12:13:21.172Z,11.34
2023-03-29T12:18:41.319Z,11.55
2023-03-29T12:23:46.050Z,11.80
2023-03-29T12:29:21.651Z,11.98
2023-03-29T12:34:40.814Z,12.07
2023-03-29T12:42:54.494Z,12.37
2023-03-29T12:48:22.952Z,12.74
2023-03-29T12:53:45.841Z,12.87
2023-03-29T12:59:11.178Z,13.10
2023-03-29T14:05:38.860Z,16.01
2023-03-29T14:10:44.983Z,15.66
2023-03-29T14:15:54.423Z,15.22
2023-03-29T14:21:01.283Z,14.87
2023-03-29T14:26:14.482Z,14.66
2023-03-29T14:31:38.886Z,14.55
2023-03-29T14:36:46.196Z,14.30
2023-03-29T14:41:52.244Z,13.80
2023-03-29T14:46:56.616Z,13.26
2023-03-29T14:52:00.670Z,12.77
2023-03-29T14:57:08.435Z,12.36
2023-03-29T15:02:32.494Z,11.99
2023-03-29T15:07:40.163Z,11.74
2023-03-29T15:12:44.003Z,11.63
2023-03-29T15:17:52.282Z,11.52
2023-03-29T15:23:04.685Z,11.41
2023-03-29T15:28:27.211Z,11.30
2023-03-29T15:33:36.807Z,11.15
2023-03-29T15:38:45.151Z,11.09
2023-03-29T15:43:48.937Z,10.99
2023-03-29T15:48:52.652Z,10.85
2023-03-29T15:53:56.431Z,10.79
2023-03-29T15:59:02.020Z,10.72
2023-03-29T16:04:06.993Z,10.62
2023-03-29T16:09:12.213Z,10.55
2023-03-29T16:14:23.159Z,10.46
2023-03-29T16:19:28.532Z,10.41
2023-03-29T16:24:33.336Z,10.41
2023-03-29T16:29:36.894Z,10.42
2023-03-29T16:34:41.588Z,10.35
2023-03-29T16:39:46.563Z,10.27
2023-03-29T16:44:49.976Z,10.17
2023-03-29T16:49:53.685Z,10.06
2023-03-29T16:54:57.032Z,9.99
2023-03-29T17:00:00.470Z,9.89
2023-03-29T17:05:04.573Z,9.83
2023-03-29T17:10:09.483Z,9.79
2023-03-29T17:15:12.895Z,9.72
2023-03-29T17:20:17.399Z,9.66
2023-03-29T17:25:23.899Z,9.60
2023-03-29T17:30:27.931Z,9.54
2023-03-29T17:35:31.728Z,9.48
2023-03-29T17:40:38.370Z,9.45
2023-03-29T17:45:41.693Z,9.51
2023-03-29T17:50:45.161Z,9.49
2023-03-29T17:55:48.757Z,9.39
2023-03-29T18:00:52.126Z,9.27
2023-03-29T18:05:56.772Z,9.10
2023-03-29T18:11:14.164Z,8.95
2023-03-29T18:16:17.972Z,8.91
2023-03-29T18:21:22.277Z,8.95
2023-03-29T18:26:26.023Z,8.92
2023-03-29T18:31:29.471Z,8.84
2023-03-29T18:36:32.871Z,8.77
2023-03-29T18:41:37.521Z,8.70
2023-03-29T18:46:41.203Z,8.72
2023-03-29T18:51:46.453Z,8.70
2023-03-29T18:56:49.950Z,8.61
2023-03-29T19:01:53.621Z,8.56
2023-03-29T19:06:56.899Z,8.62
2023-03-29T19:12:00.502Z,8.53
2023-03-29T19:17:03.992Z,8.45
2023-03-29T19:22:07.721Z,8.35
2023-03-29T19:27:12.593Z,8.32
2023-03-29T19:32:16.388Z,8.26
2023-03-29T19:37:20.413Z,8.16
2023-03-29T19:42:24.176Z,8.11
2023-03-29T19:47:28.442Z,8.06
2023-03-29T19:52:32.010Z,7.97
2023-03-29T19:57:35.425Z,7.85
2023-03-29T20:02:39.168Z,7.88
2023-03-29T20:07:43.057Z,7.80
2023-03-29T20:12:48.074Z,7.65
2023-03-29T20:17:54.492Z,7.52
2023-03-29T20:29:24.321Z,7.44
2023-03-29T20:34:28.054Z,7.44
2023-03-29T20:39:31.661Z,7.43
2023-03-29T20:44:35.471Z,7.41
2023-03-29T20:49:38.835Z,7.34
2023-03-29T20:54:44.354Z,7.20
2023-03-29T20:59:49.425Z,7.15
2023-03-29T21:04:54.075Z,7.15
2023-03-29T21:09:57.485Z,7.12
2023-03-29T21:15:02.744Z,7.14
2023-03-29T21:20:13.125Z,7.07
2023-03-29T21:25:16.869Z,7.04
2023-03-29T21:30:20.261Z,7.03
2023-03-29T21:35:24.255Z,6.97
2023-03-29T21:40:27.743Z,6.93
2023-03-29T21:45:31.215Z,6.92
2023-03-29T21:50:34.792Z,6.82
2023-03-29T21:55:38.360Z,6.69
2023-03-29T22:00:41.806Z,6.62
2023-03-29T22:05:56.621Z,6.54
2023-03-29T22:11:08.260Z,6.41
2023-03-29T22:16:18.819Z,6.27
2023-03-29T22:21:25.399Z,6.14
2023-03-29T22:26:31.069Z,5.98
2023-03-29T22:31:34.317Z,5.83
2023-03-29T22:36:37.604Z,5.72
2023-03-29T22:41:42.040Z,5.56
2023-03-29T22:46:45.769Z,5.39
2023-03-29T22:51:49.298Z,5.28
2023-03-29T22:57:01.128Z,5.20
2023-03-29T23:02:07.868Z,5.16
2023-03-29T23:07:13.462Z,5.08
2023-03-29T23:12:17.316Z,4.99
2023-03-29T23:17:21.014Z,4.92
2023-03-29T23:22:24.672Z,4.90
2023-03-29T23:27:28.567Z,4.94
2023-03-29T23:32:31.989Z,5.00
2023-03-29T23:37:35.638Z,5.04
2023-03-29T23:42:40.938Z,5.08
2023-03-29T23:47:45.762Z,5.12
2023-03-29T23:52:49.701Z,5.12
2023-03-29T23:57:53.045Z,5.10
